sensor_id;sensor_type;location;lat;lon;timestamp;temperature;humidity
59923;DHT22;45778;51.142;3.732;2022-09-09T00:02:21;15.70;99.90
59923;DHT22;45778;51.142;3.732;2022-09-09T00:07:27;15.60;99.90
59923;DHT22;45778;51.142;3.732;2022-09-09T00:10:16;15.50;99.90
59923;DHT22;45778;51.142;3.732;2022-09-09T00:13:25;15.50;99.90
59923;DHT22;45778;51.142;3.732;2022-09-09T00:16:14;15.40;99.90
59923;DHT22;45778;51.142;3.732;2022-09-09T00:18:56;15.40;99.90
59923;DHT22;45778;51.142;3.732;2022-09-09T00:21:34;15.50;99.90
59923;DHT22;45778;51.142;3.732;2022-09-09T00:24:23;15.50;99.90
59923;DHT22;45778;51.142;3.732;2022-09-09T00:26:52;15.50;99.90
59923;DHT22;45778;51.142;3.732;2022-09-09T00:29:32;15.40;99.90
59923;DHT22;45778;51.142;3.732;2022-09-09T00:32:16;15.40;99.90
59923;DHT22;45778;51.142;3.732;2022-09-09T00:34:52;15.40;99.90
59923;DHT22;45778;51.142;3.732;2022-09-09T00:37:20;15.40;99.90
59923;DHT22;45778;51.142;3.732;2022-09-09T00:39:47;15.40;99.90
59923;DHT22;45778;51.142;3.732;2022-09-09T00:44:59;15.30;99.90
59923;DHT22;45778;51.142;3.732;2022-09-09T00:47:51;15.40;99.90
59923;DHT22;45778;51.142;3.732;2022-09-09T00:50:35;15.30;99.90
59923;DHT22;45778;51.142;3.732;2022-09-09T00:56:25;15.30;99.90
59923;DHT22;45778;51.142;3.732;2022-09-09T01:01:45;15.30;99.90
59923;DHT22;45778;51.142;3.732;2022-09-09T01:04:22;15.30;99.90
59923;DHT22;45778;51.142;3.732;2022-09-09T01:06:57;15.30;99.90
59923;DHT22;45778;51.142;3.732;2022-09-09T01:12:03;15.30;99.90
59923;DHT22;45778;51.142;3.732;2022-09-09T01:17:21;15.40;99.90
59923;DHT22;45778;51.142;3.732;2022-09-09T01:20:09;15.30;99.90
59923;DHT22;45778;51.142;3.732;2022-09-09T01:22:52;15.30;99.90
59923;DHT22;45778;51.142;3.732;2022-09-09T01:26:01;15.30;99.90
59923;DHT22;45778;51.142;3.732;2022-09-09T01:28:28;15.30;99.90
59923;DHT22;45778;51.142;3.732;2022-09-09T01:30:55;15.20;99.90
59923;DHT22;45778;51.142;3.732;2022-09-09T01:33:21;15.30;99.90
59923;DHT22;45778;51.142;3.732;2022-09-09T01:35:58;15.20;99.90
59923;DHT22;45778;51.142;3.732;2022-09-09T01:38:26;15.20;99.90
59923;DHT22;45778;51.142;3.732;2022-09-09T01:40:54;15.10;99.90
59923;DHT22;45778;51.142;3.732;2022-09-09T01:43:23;15.10;99.90
59923;DHT22;45778;51.142;3.732;2022-09-09T01:45:52;15.10;99.90
59923;DHT22;45778;51.142;3.732;2022-09-09T01:48:20;15.10;99.90
59923;DHT22;45778;51.142;3.732;2022-09-09T01:50:47;15.00;99.90
59923;DHT22;45778;51.142;3.732;2022-09-09T01:53:15;15.10;99.90
59923;DHT22;45778;51.142;3.732;2022-09-09T01:58:55;15.00;99.90
59923;DHT22;45778;51.142;3.732;2022-09-09T02:04:22;15.10;99.90
59923;DHT22;45778;51.142;3.732;2022-09-09T02:06:53;15.00;99.90
59923;DHT22;45778;51.142;3.732;2022-09-09T02:09:23;15.20;99.90
59923;DHT22;45778;51.142;3.732;2022-09-09T02:12:13;15.10;99.90
59923;DHT22;45778;51.142;3.732;2022-09-09T02:14:43;15.10;99.90
59923;DHT22;45778;51.142;3.732;2022-09-09T02:17:13;15.40;99.90
59923;DHT22;45778;51.142;3.732;2022-09-09T02:20:05;15.20;99.90
59923;DHT22;45778;51.142;3.732;2022-09-09T02:22:32;15.30;99.90
59923;DHT22;45778;51.142;3.732;2022-09-09T02:25:00;15.20;99.90
59923;DHT22;45778;51.142;3.732;2022-09-09T02:27:26;15.20;99.90
59923;DHT22;45778;51.142;3.732;2022-09-09T02:29:52;15.40;99.90
59923;DHT22;45778;51.142;3.732;2022-09-09T02:32:22;15.40;99.90
59923;DHT22;45778;51.142;3.732;2022-09-09T02:34:56;15.30;99.90
59923;DHT22;45778;51.142;3.732;2022-09-09T02:37:26;15.30;99.90
59923;DHT22;45778;51.142;3.732;2022-09-09T02:39:54;15.40;99.90
59923;DHT22;45778;51.142;3.732;2022-09-09T02:42:20;15.40;99.90
59923;DHT22;45778;51.142;3.732;2022-09-09T02:44:46;15.30;99.90
59923;DHT22;45778;51.142;3.732;2022-09-09T02:47:30;15.40;99.90
59923;DHT22;45778;51.142;3.732;2022-09-09T02:50:54;15.40;99.90
59923;DHT22;45778;51.142;3.732;2022-09-09T02:53:17;15.40;99.90
59923;DHT22;45778;51.142;3.732;2022-09-09T02:56:05;15.40;99.90
59923;DHT22;45778;51.142;3.732;2022-09-09T02:58:35;15.40;99.90
59923;DHT22;45778;51.142;3.732;2022-09-09T03:01:01;15.40;99.90
59923;DHT22;45778;51.142;3.732;2022-09-09T03:03:28;15.40;99.90
59923;DHT22;45778;51.142;3.732;2022-09-09T03:05:54;15.40;99.90
59923;DHT22;45778;51.142;3.732;2022-09-09T03:08:20;15.30;99.90
59923;DHT22;45778;51.142;3.732;2022-09-09T03:10:46;15.40;99.90
59923;DHT22;45778;51.142;3.732;2022-09-09T03:13:11;15.40;99.90
59923;DHT22;45778;51.142;3.732;2022-09-09T03:15:40;15.30;99.90
59923;DHT22;45778;51.142;3.732;2022-09-09T03:18:06;15.30;99.90
59923;DHT22;45778;51.142;3.732;2022-09-09T03:20:32;15.20;99.90
59923;DHT22;45778;51.142;3.732;2022-09-09T03:22:59;15.20;99.90
59923;DHT22;45778;51.142;3.732;2022-09-09T03:25:25;15.30;99.90
59923;DHT22;45778;51.142;3.732;2022-09-09T03:27:52;15.20;99.90
59923;DHT22;45778;51.142;3.732;2022-09-09T03:30:26;15.20;99.90
59923;DHT22;45778;51.142;3.732;2022-09-09T03:32:52;15.20;99.90
59923;DHT22;45778;51.142;3.732;2022-09-09T03:35:18;15.30;99.90
59923;DHT22;45778;51.142;3.732;2022-09-09T03:37:44;15.30;99.90
59923;DHT22;45778;51.142;3.732;2022-09-09T03:40:10;15.30;99.90
59923;DHT22;45778;51.142;3.732;2022-09-09T03:42:37;15.30;99.90
59923;DHT22;45778;51.142;3.732;2022-09-09T03:45:04;15.40;99.90
59923;DHT22;45778;51.142;3.732;2022-09-09T03:47:30;15.30;99.90
59923;DHT22;45778;51.142;3.732;2022-09-09T03:49:56;15.40;99.90
59923;DHT22;45778;51.142;3.732;2022-09-09T03:52:22;15.40;99.90
59923;DHT22;45778;51.142;3.732;2022-09-09T03:54:50;15.30;99.90
59923;DHT22;45778;51.142;3.732;2022-09-09T03:57:16;15.30;99.90
59923;DHT22;45778;51.142;3.732;2022-09-09T03:59:43;15.40;99.90
59923;DHT22;45778;51.142;3.732;2022-09-09T04:02:09;15.50;99.90
59923;DHT22;45778;51.142;3.732;2022-09-09T04:04:35;15.50;99.90
59923;DHT22;45778;51.142;3.732;2022-09-09T04:07:00;15.50;99.90
59923;DHT22;45778;51.142;3.732;2022-09-09T04:09:26;15.50;99.90
59923;DHT22;45778;51.142;3.732;2022-09-09T04:11:52;15.40;99.90
59923;DHT22;45778;51.142;3.732;2022-09-09T04:14:19;15.50;99.90
59923;DHT22;45778;51.142;3.732;2022-09-09T04:16:45;15.50;99.90
59923;DHT22;45778;51.142;3.732;2022-09-09T04:19:12;15.40;99.90
59923;DHT22;45778;51.142;3.732;2022-09-09T04:21:39;15.40;99.90
59923;DHT22;45778;51.142;3.732;2022-09-09T04:24:06;15.40;99.90
59923;DHT22;45778;51.142;3.732;2022-09-09T04:26:32;15.40;99.90
59923;DHT22;45778;51.142;3.732;2022-09-09T04:28:58;15.40;99.90
59923;DHT22;45778;51.142;3.732;2022-09-09T04:31:24;15.50;99.90
59923;DHT22;45778;51.142;3.732;2022-09-09T04:33:52;15.40;99.90
59923;DHT22;45778;51.142;3.732;2022-09-09T04:36:18;15.50;99.90
59923;DHT22;45778;51.142;3.732;2022-09-09T04:38:47;15.50;99.90
59923;DHT22;45778;51.142;3.732;2022-09-09T04:41:14;15.40;99.90
59923;DHT22;45778;51.142;3.732;2022-09-09T04:43:40;15.60;99.90
59923;DHT22;45778;51.142;3.732;2022-09-09T04:46:06;15.50;99.90
59923;DHT22;45778;51.142;3.732;2022-09-09T04:48:32;15.50;99.90
59923;DHT22;45778;51.142;3.732;2022-09-09T04:51:00;15.50;99.90
59923;DHT22;45778;51.142;3.732;2022-09-09T04:53:27;15.50;99.90
59923;DHT22;45778;51.142;3.732;2022-09-09T04:56:00;15.40;99.90
59923;DHT22;45778;51.142;3.732;2022-09-09T04:58:26;15.40;99.90
59923;DHT22;45778;51.142;3.732;2022-09-09T05:00:52;15.40;99.90
59923;DHT22;45778;51.142;3.732;2022-09-09T05:03:18;15.40;99.90
59923;DHT22;45778;51.142;3.732;2022-09-09T05:05:44;15.40;99.90
59923;DHT22;45778;51.142;3.732;2022-09-09T05:08:10;15.40;99.90
59923;DHT22;45778;51.142;3.732;2022-09-09T05:10:38;15.50;99.90
59923;DHT22;45778;51.142;3.732;2022-09-09T05:13:04;15.50;99.90
59923;DHT22;45778;51.142;3.732;2022-09-09T05:15:30;15.60;99.90
59923;DHT22;45778;51.142;3.732;2022-09-09T05:17:58;15.60;99.90
59923;DHT22;45778;51.142;3.732;2022-09-09T05:20:24;15.60;99.90
59923;DHT22;45778;51.142;3.732;2022-09-09T05:22:53;15.60;99.90
59923;DHT22;45778;51.142;3.732;2022-09-09T05:25:19;15.60;99.90
59923;DHT22;45778;51.142;3.732;2022-09-09T05:27:45;15.60;99.90
59923;DHT22;45778;51.142;3.732;2022-09-09T05:30:11;15.40;99.90
59923;DHT22;45778;51.142;3.732;2022-09-09T05:32:37;15.50;99.90
59923;DHT22;45778;51.142;3.732;2022-09-09T05:35:03;15.50;99.90
59923;DHT22;45778;51.142;3.732;2022-09-09T05:37:30;15.50;99.90
59923;DHT22;45778;51.142;3.732;2022-09-09T05:39:56;15.50;99.90
59923;DHT22;45778;51.142;3.732;2022-09-09T05:42:23;15.50;99.90
59923;DHT22;45778;51.142;3.732;2022-09-09T05:44:49;15.50;99.90
59923;DHT22;45778;51.142;3.732;2022-09-09T05:47:16;15.40;99.90
59923;DHT22;45778;51.142;3.732;2022-09-09T05:49:42;15.50;99.90
59923;DHT22;45778;51.142;3.732;2022-09-09T05:52:08;15.40;99.90
59923;DHT22;45778;51.142;3.732;2022-09-09T05:54:35;15.50;99.90
59923;DHT22;45778;51.142;3.732;2022-09-09T05:57:00;15.50;99.90
59923;DHT22;45778;51.142;3.732;2022-09-09T05:59:26;15.60;99.90
59923;DHT22;45778;51.142;3.732;2022-09-09T06:01:52;15.60;99.90
59923;DHT22;45778;51.142;3.732;2022-09-09T06:04:18;15.70;99.90
59923;DHT22;45778;51.142;3.732;2022-09-09T06:06:46;15.60;99.90
59923;DHT22;45778;51.142;3.732;2022-09-09T06:09:11;15.50;99.90
59923;DHT22;45778;51.142;3.732;2022-09-09T06:11:38;15.40;99.90
59923;DHT22;45778;51.142;3.732;2022-09-09T06:14:05;15.40;99.90
59923;DHT22;45778;51.142;3.732;2022-09-09T06:16:31;15.40;99.90
59923;DHT22;45778;51.142;3.732;2022-09-09T06:19:00;15.40;99.90
59923;DHT22;45778;51.142;3.732;2022-09-09T06:21:37;15.40;99.90
59923;DHT22;45778;51.142;3.732;2022-09-09T06:24:04;15.30;99.90
59923;DHT22;45778;51.142;3.732;2022-09-09T06:26:32;15.30;99.90
59923;DHT22;45778;51.142;3.732;2022-09-09T06:28:59;15.30;99.90
59923;DHT22;45778;51.142;3.732;2022-09-09T06:31:27;15.30;99.90
59923;DHT22;45778;51.142;3.732;2022-09-09T06:33:56;15.30;99.90
59923;DHT22;45778;51.142;3.732;2022-09-09T06:36:23;15.30;99.90
59923;DHT22;45778;51.142;3.732;2022-09-09T06:38:49;15.40;99.90
59923;DHT22;45778;51.142;3.732;2022-09-09T06:41:21;15.40;99.90
59923;DHT22;45778;51.142;3.732;2022-09-09T06:43:47;15.40;99.90
59923;DHT22;45778;51.142;3.732;2022-09-09T06:46:16;15.40;99.90
59923;DHT22;45778;51.142;3.732;2022-09-09T06:48:42;15.40;99.90
59923;DHT22;45778;51.142;3.732;2022-09-09T06:51:21;15.60;99.90
59923;DHT22;45778;51.142;3.732;2022-09-09T06:53:50;15.50;99.90
59923;DHT22;45778;51.142;3.732;2022-09-09T06:58:42;15.60;99.90
59923;DHT22;45778;51.142;3.732;2022-09-09T07:01:13;15.70;99.90
59923;DHT22;45778;51.142;3.732;2022-09-09T07:03:39;15.90;99.90
59923;DHT22;45778;51.142;3.732;2022-09-09T07:06:06;16.00;99.90
59923;DHT22;45778;51.142;3.732;2022-09-09T07:08:33;16.00;99.90
59923;DHT22;45778;51.142;3.732;2022-09-09T07:11:06;16.10;99.90
59923;DHT22;45778;51.142;3.732;2022-09-09T07:13:32;16.30;99.90
59923;DHT22;45778;51.142;3.732;2022-09-09T07:16:09;16.30;99.90
59923;DHT22;45778;51.142;3.732;2022-09-09T07:18:35;16.50;99.90
59923;DHT22;45778;51.142;3.732;2022-09-09T07:21:01;16.40;99.90
59923;DHT22;45778;51.142;3.732;2022-09-09T07:23:28;16.50;99.90
59923;DHT22;45778;51.142;3.732;2022-09-09T07:25:54;16.70;99.90
59923;DHT22;45778;51.142;3.732;2022-09-09T07:28:20;16.70;99.90
59923;DHT22;45778;51.142;3.732;2022-09-09T07:30:54;16.60;99.90
59923;DHT22;45778;51.142;3.732;2022-09-09T07:33:20;16.60;99.90
59923;DHT22;45778;51.142;3.732;2022-09-09T07:35:45;16.50;99.90
59923;DHT22;45778;51.142;3.732;2022-09-09T07:38:11;16.50;99.90
59923;DHT22;45778;51.142;3.732;2022-09-09T07:40:37;16.50;99.90
59923;DHT22;45778;51.142;3.732;2022-09-09T07:43:03;16.50;99.90
59923;DHT22;45778;51.142;3.732;2022-09-09T07:45:29;16.60;99.90
59923;DHT22;45778;51.142;3.732;2022-09-09T07:47:55;16.70;99.90
59923;DHT22;45778;51.142;3.732;2022-09-09T07:50:22;16.90;99.90
59923;DHT22;45778;51.142;3.732;2022-09-09T07:52:50;17.00;99.90
59923;DHT22;45778;51.142;3.732;2022-09-09T07:55:15;17.00;99.90
59923;DHT22;45778;51.142;3.732;2022-09-09T07:57:41;17.00;99.90
59923;DHT22;45778;51.142;3.732;2022-09-09T08:00:07;17.00;99.90
59923;DHT22;45778;51.142;3.732;2022-09-09T08:02:33;16.80;99.90
59923;DHT22;45778;51.142;3.732;2022-09-09T08:04:58;16.80;99.90
59923;DHT22;45778;51.142;3.732;2022-09-09T08:07:24;16.60;99.90
59923;DHT22;45778;51.142;3.732;2022-09-09T08:09:50;16.70;99.90
59923;DHT22;45778;51.142;3.732;2022-09-09T08:12:16;16.50;99.90
59923;DHT22;45778;51.142;3.732;2022-09-09T08:14:41;16.40;99.90
59923;DHT22;45778;51.142;3.732;2022-09-09T08:17:08;16.40;99.90
59923;DHT22;45778;51.142;3.732;2022-09-09T08:19:33;16.40;99.90
59923;DHT22;45778;51.142;3.732;2022-09-09T08:22:02;16.30;99.90
59923;DHT22;45778;51.142;3.732;2022-09-09T08:24:28;16.30;99.90
59923;DHT22;45778;51.142;3.732;2022-09-09T08:26:54;16.30;99.90
59923;DHT22;45778;51.142;3.732;2022-09-09T08:29:21;16.30;99.90
59923;DHT22;45778;51.142;3.732;2022-09-09T08:34:14;16.30;99.90
59923;DHT22;45778;51.142;3.732;2022-09-09T08:36:42;16.30;99.90
59923;DHT22;45778;51.142;3.732;2022-09-09T08:39:10;16.40;99.90
59923;DHT22;45778;51.142;3.732;2022-09-09T08:50:35;16.20;99.90
59923;DHT22;45778;51.142;3.732;2022-09-09T08:53:22;16.30;99.90
59923;DHT22;45778;51.142;3.732;2022-09-09T08:55:56;16.30;99.90
59923;DHT22;45778;51.142;3.732;2022-09-09T08:58:29;16.30;99.90
59923;DHT22;45778;51.142;3.732;2022-09-09T09:01:17;16.30;99.90
59923;DHT22;45778;51.142;3.732;2022-09-09T09:04:00;16.30;99.90
59923;DHT22;45778;51.142;3.732;2022-09-09T09:09:08;16.40;99.90
59923;DHT22;45778;51.142;3.732;2022-09-09T09:12:06;16.60;99.90
59923;DHT22;45778;51.142;3.732;2022-09-09T09:14:35;16.70;99.90
59923;DHT22;45778;51.142;3.732;2022-09-09T09:19:33;16.80;99.90
59923;DHT22;45778;51.142;3.732;2022-09-09T09:22:21;17.00;99.90
59923;DHT22;45778;51.142;3.732;2022-09-09T09:25:23;17.10;99.90
59923;DHT22;45778;51.142;3.732;2022-09-09T09:28:02;17.20;99.90
59923;DHT22;45778;51.142;3.732;2022-09-09T09:30:39;17.20;99.90
59923;DHT22;45778;51.142;3.732;2022-09-09T09:33:20;17.30;99.90
59923;DHT22;45778;51.142;3.732;2022-09-09T09:35:50;17.40;99.90
59923;DHT22;45778;51.142;3.732;2022-09-09T09:38:21;17.40;99.90
59923;DHT22;45778;51.142;3.732;2022-09-09T09:40:55;17.50;99.90
59923;DHT22;45778;51.142;3.732;2022-09-09T09:43:36;17.60;99.90
59923;DHT22;45778;51.142;3.732;2022-09-09T09:46:19;17.50;99.90
59923;DHT22;45778;51.142;3.732;2022-09-09T09:48:45;17.60;99.90
59923;DHT22;45778;51.142;3.732;2022-09-09T09:51:13;17.70;99.90
59923;DHT22;45778;51.142;3.732;2022-09-09T09:53:42;17.90;99.90
59923;DHT22;45778;51.142;3.732;2022-09-09T09:56:11;17.70;99.90
59923;DHT22;45778;51.142;3.732;2022-09-09T09:58:50;17.50;99.90
59923;DHT22;45778;51.142;3.732;2022-09-09T10:01:42;17.40;99.90
59923;DHT22;45778;51.142;3.732;2022-09-09T10:04:15;17.30;99.90
59923;DHT22;45778;51.142;3.732;2022-09-09T10:06:45;17.30;99.90
59923;DHT22;45778;51.142;3.732;2022-09-09T10:09:28;17.30;99.90
59923;DHT22;45778;51.142;3.732;2022-09-09T10:12:04;17.40;99.90
59923;DHT22;45778;51.142;3.732;2022-09-09T10:22:35;17.90;99.90
59923;DHT22;45778;51.142;3.732;2022-09-09T10:31:04;18.50;99.90
59923;DHT22;45778;51.142;3.732;2022-09-09T10:36:10;18.40;99.90
59923;DHT22;45778;51.142;3.732;2022-09-09T10:38:45;18.50;99.90
59923;DHT22;45778;51.142;3.732;2022-09-09T10:54:47;19.10;99.90
59923;DHT22;45778;51.142;3.732;2022-09-09T11:00:03;19.00;99.90
59923;DHT22;45778;51.142;3.732;2022-09-09T11:02:32;18.80;99.90
59923;DHT22;45778;51.142;3.732;2022-09-09T11:05:50;18.70;99.90
59923;DHT22;45778;51.142;3.732;2022-09-09T11:08:35;18.60;99.90
59923;DHT22;45778;51.142;3.732;2022-09-09T11:11:32;18.60;99.90
59923;DHT22;45778;51.142;3.732;2022-09-09T11:14:15;19.10;99.90
59923;DHT22;45778;51.142;3.732;2022-09-09T11:16:52;19.40;99.90
59923;DHT22;45778;51.142;3.732;2022-09-09T11:21:54;19.20;99.90
59923;DHT22;45778;51.142;3.732;2022-09-09T11:24:25;19.30;99.90
59923;DHT22;45778;51.142;3.732;2022-09-09T11:27:03;19.50;99.90
59923;DHT22;45778;51.142;3.732;2022-09-09T11:30:04;20.10;99.90
59923;DHT22;45778;51.142;3.732;2022-09-09T11:33:02;20.30;99.90
59923;DHT22;45778;51.142;3.732;2022-09-09T11:38:51;19.90;99.90
59923;DHT22;45778;51.142;3.732;2022-09-09T11:41:18;20.00;99.90
59923;DHT22;45778;51.142;3.732;2022-09-09T11:43:52;19.70;99.90
59923;DHT22;45778;51.142;3.732;2022-09-09T11:46:22;19.50;99.90
59923;DHT22;45778;51.142;3.732;2022-09-09T11:49:04;19.30;99.90
59923;DHT22;45778;51.142;3.732;2022-09-09T11:51:31;19.30;99.90
59923;DHT22;45778;51.142;3.732;2022-09-09T11:54:44;19.30;99.90
59923;DHT22;45778;51.142;3.732;2022-09-09T11:56:50;19.90;99.90
59923;DHT22;45778;51.142;3.732;2022-09-09T11:59:29;20.00;99.90
59923;DHT22;45778;51.142;3.732;2022-09-09T12:01:58;19.70;99.90
59923;DHT22;45778;51.142;3.732;2022-09-09T12:09:58;19.80;99.90
59923;DHT22;45778;51.142;3.732;2022-09-09T12:12:46;19.90;99.90
59923;DHT22;45778;51.142;3.732;2022-09-09T12:17:44;20.10;99.90
59923;DHT22;45778;51.142;3.732;2022-09-09T12:20:23;19.80;99.90
59923;DHT22;45778;51.142;3.732;2022-09-09T12:26:13;20.20;99.90
59923;DHT22;45778;51.142;3.732;2022-09-09T12:29:26;20.30;99.90
59923;DHT22;45778;51.142;3.732;2022-09-09T12:34:46;20.50;99.90
59923;DHT22;45778;51.142;3.732;2022-09-09T12:40:20;19.70;99.90
59923;DHT22;45778;51.142;3.732;2022-09-09T12:42:46;19.30;99.90
59923;DHT22;45778;51.142;3.732;2022-09-09T12:45:22;19.20;99.90
59923;DHT22;45778;51.142;3.732;2022-09-09T12:48:01;19.20;99.90
59923;DHT22;45778;51.142;3.732;2022-09-09T12:50:37;19.60;99.90
59923;DHT22;45778;51.142;3.732;2022-09-09T12:53:08;19.70;99.90
59923;DHT22;45778;51.142;3.732;2022-09-09T12:55:37;19.60;99.90
59923;DHT22;45778;51.142;3.732;2022-09-09T12:58:05;19.20;99.90
59923;DHT22;45778;51.142;3.732;2022-09-09T13:00:32;18.90;99.90
59923;DHT22;45778;51.142;3.732;2022-09-09T13:03:01;18.70;99.90
59923;DHT22;45778;51.142;3.732;2022-09-09T13:05:34;18.90;99.90
59923;DHT22;45778;51.142;3.732;2022-09-09T13:08:11;19.60;99.90
59923;DHT22;45778;51.142;3.732;2022-09-09T13:10:59;20.20;99.90
59923;DHT22;45778;51.142;3.732;2022-09-09T13:13:35;20.10;99.90
59923;DHT22;45778;51.142;3.732;2022-09-09T13:16:02;19.40;99.90
59923;DHT22;45778;51.142;3.732;2022-09-09T13:18:35;19.20;99.90
59923;DHT22;45778;51.142;3.732;2022-09-09T13:21:02;19.60;99.90
59923;DHT22;45778;51.142;3.732;2022-09-09T13:23:36;20.40;99.90
59923;DHT22;45778;51.142;3.732;2022-09-09T13:26:24;20.80;99.90
59923;DHT22;45778;51.142;3.732;2022-09-09T13:28:52;20.90;99.90
59923;DHT22;45778;51.142;3.732;2022-09-09T13:31:29;20.50;99.90
59923;DHT22;45778;51.142;3.732;2022-09-09T13:33:55;19.90;99.90
59923;DHT22;45778;51.142;3.732;2022-09-09T13:36:33;19.80;99.90
59923;DHT22;45778;51.142;3.732;2022-09-09T13:39:01;20.10;99.90
59923;DHT22;45778;51.142;3.732;2022-09-09T13:41:36;20.00;99.90
59923;DHT22;45778;51.142;3.732;2022-09-09T13:44:14;19.80;99.90
59923;DHT22;45778;51.142;3.732;2022-09-09T13:46:42;19.50;99.90
59923;DHT22;45778;51.142;3.732;2022-09-09T13:51:45;19.00;99.90
59923;DHT22;45778;51.142;3.732;2022-09-09T13:54:17;18.80;99.90
59923;DHT22;45778;51.142;3.732;2022-09-09T13:56:43;18.40;99.90
59923;DHT22;45778;51.142;3.732;2022-09-09T13:59:12;18.10;99.90
59923;DHT22;45778;51.142;3.732;2022-09-09T14:01:38;17.80;99.90
59923;DHT22;45778;51.142;3.732;2022-09-09T14:04:04;17.60;99.90
59923;DHT22;45778;51.142;3.732;2022-09-09T14:06:34;17.30;99.90
59923;DHT22;45778;51.142;3.732;2022-09-09T14:09:10;17.20;99.90
59923;DHT22;45778;51.142;3.732;2022-09-09T14:11:37;17.10;99.90
59923;DHT22;45778;51.142;3.732;2022-09-09T14:14:03;17.20;99.90
59923;DHT22;45778;51.142;3.732;2022-09-09T14:16:29;17.50;99.90
59923;DHT22;45778;51.142;3.732;2022-09-09T14:18:54;18.40;99.90
59923;DHT22;45778;51.142;3.732;2022-09-09T14:21:25;19.60;99.90
59923;DHT22;45778;51.142;3.732;2022-09-09T14:23:51;20.70;99.90
59923;DHT22;45778;51.142;3.732;2022-09-09T14:26:18;20.50;99.90
59923;DHT22;45778;51.142;3.732;2022-09-09T14:28:46;19.90;99.90
59923;DHT22;45778;51.142;3.732;2022-09-09T14:31:12;19.50;99.90
59923;DHT22;45778;51.142;3.732;2022-09-09T14:33:38;19.00;99.90
59923;DHT22;45778;51.142;3.732;2022-09-09T14:36:04;18.70;99.90
59923;DHT22;45778;51.142;3.732;2022-09-09T14:38:33;18.30;99.90
59923;DHT22;45778;51.142;3.732;2022-09-09T14:41:00;17.80;99.90
59923;DHT22;45778;51.142;3.732;2022-09-09T14:43:28;17.40;99.90
59923;DHT22;45778;51.142;3.732;2022-09-09T14:45:55;17.00;99.90
59923;DHT22;45778;51.142;3.732;2022-09-09T14:48:20;16.90;99.90
59923;DHT22;45778;51.142;3.732;2022-09-09T14:50:46;16.50;99.90
59923;DHT22;45778;51.142;3.732;2022-09-09T14:53:12;16.40;99.90
59923;DHT22;45778;51.142;3.732;2022-09-09T14:55:38;16.30;99.90
59923;DHT22;45778;51.142;3.732;2022-09-09T14:58:04;16.40;99.90
59923;DHT22;45778;51.142;3.732;2022-09-09T15:00:31;16.50;99.90
59923;DHT22;45778;51.142;3.732;2022-09-09T15:02:57;16.70;99.90
59923;DHT22;45778;51.142;3.732;2022-09-09T15:05:23;17.30;99.90
59923;DHT22;45778;51.142;3.732;2022-09-09T15:07:49;18.30;99.90
59923;DHT22;45778;51.142;3.732;2022-09-09T15:10:15;18.60;99.90
59923;DHT22;45778;51.142;3.732;2022-09-09T15:12:42;19.20;99.90
59923;DHT22;45778;51.142;3.732;2022-09-09T15:15:09;20.10;99.90
59923;DHT22;45778;51.142;3.732;2022-09-09T15:17:35;20.20;99.90
59923;DHT22;45778;51.142;3.732;2022-09-09T15:20:02;20.20;99.90
59923;DHT22;45778;51.142;3.732;2022-09-09T15:22:28;19.90;99.90
59923;DHT22;45778;51.142;3.732;2022-09-09T15:24:53;19.70;99.90
59923;DHT22;45778;51.142;3.732;2022-09-09T15:27:19;19.30;99.90
59923;DHT22;45778;51.142;3.732;2022-09-09T15:29:45;19.80;99.90
59923;DHT22;45778;51.142;3.732;2022-09-09T15:32:10;19.70;99.90
59923;DHT22;45778;51.142;3.732;2022-09-09T15:34:36;19.60;99.90
59923;DHT22;45778;51.142;3.732;2022-09-09T15:37:02;19.50;99.90
59923;DHT22;45778;51.142;3.732;2022-09-09T15:39:27;19.20;99.90
59923;DHT22;45778;51.142;3.732;2022-09-09T15:41:53;19.10;99.90
59923;DHT22;45778;51.142;3.732;2022-09-09T15:44:19;19.10;99.90
59923;DHT22;45778;51.142;3.732;2022-09-09T15:46:48;18.90;99.90
59923;DHT22;45778;51.142;3.732;2022-09-09T15:49:20;18.40;99.90
59923;DHT22;45778;51.142;3.732;2022-09-09T15:51:52;17.80;99.90
59923;DHT22;45778;51.142;3.732;2022-09-09T15:54:19;17.50;99.90
59923;DHT22;45778;51.142;3.732;2022-09-09T15:56:56;17.90;99.90
59923;DHT22;45778;51.142;3.732;2022-09-09T15:59:23;19.00;99.90
59923;DHT22;45778;51.142;3.732;2022-09-09T16:01:49;19.80;99.90
59923;DHT22;45778;51.142;3.732;2022-09-09T16:04:18;21.00;99.90
59923;DHT22;45778;51.142;3.732;2022-09-09T16:07:04;21.10;99.90
59923;DHT22;45778;51.142;3.732;2022-09-09T16:09:31;20.80;99.90
59923;DHT22;45778;51.142;3.732;2022-09-09T16:11:58;20.30;99.90
59923;DHT22;45778;51.142;3.732;2022-09-09T16:14:24;19.50;99.90
59923;DHT22;45778;51.142;3.732;2022-09-09T16:16:51;18.90;99.90
59923;DHT22;45778;51.142;3.732;2022-09-09T16:19:17;18.60;99.90
59923;DHT22;45778;51.142;3.732;2022-09-09T16:21:45;18.30;99.90
59923;DHT22;45778;51.142;3.732;2022-09-09T16:24:14;18.20;99.90
59923;DHT22;45778;51.142;3.732;2022-09-09T16:26:42;18.10;99.90
59923;DHT22;45778;51.142;3.732;2022-09-09T16:29:14;18.10;99.90
59923;DHT22;45778;51.142;3.732;2022-09-09T16:31:40;17.90;99.90
59923;DHT22;45778;51.142;3.732;2022-09-09T16:34:07;17.80;99.90
59923;DHT22;45778;51.142;3.732;2022-09-09T16:36:35;17.90;99.90
59923;DHT22;45778;51.142;3.732;2022-09-09T16:39:04;17.80;99.90
59923;DHT22;45778;51.142;3.732;2022-09-09T16:41:31;17.70;99.90
59923;DHT22;45778;51.142;3.732;2022-09-09T16:43:59;17.60;99.90
59923;DHT22;45778;51.142;3.732;2022-09-09T16:46:26;17.50;99.90
59923;DHT22;45778;51.142;3.732;2022-09-09T16:48:53;17.70;99.90
59923;DHT22;45778;51.142;3.732;2022-09-09T16:51:32;17.70;99.90
59923;DHT22;45778;51.142;3.732;2022-09-09T16:53:59;17.50;99.90
59923;DHT22;45778;51.142;3.732;2022-09-09T16:56:27;17.30;99.90
59923;DHT22;45778;51.142;3.732;2022-09-09T16:58:56;17.10;99.90
59923;DHT22;45778;51.142;3.732;2022-09-09T17:01:23;17.10;99.90
59923;DHT22;45778;51.142;3.732;2022-09-09T17:03:56;16.90;99.90
59923;DHT22;45778;51.142;3.732;2022-09-09T17:06:22;16.90;99.90
59923;DHT22;45778;51.142;3.732;2022-09-09T17:08:54;16.90;99.90
59923;DHT22;45778;51.142;3.732;2022-09-09T17:11:19;16.90;99.90
59923;DHT22;45778;51.142;3.732;2022-09-09T17:13:46;16.90;99.90
59923;DHT22;45778;51.142;3.732;2022-09-09T17:16:14;17.00;99.90
59923;DHT22;45778;51.142;3.732;2022-09-09T17:18:40;17.00;99.90
59923;DHT22;45778;51.142;3.732;2022-09-09T17:21:12;17.20;99.90
59923;DHT22;45778;51.142;3.732;2022-09-09T17:23:40;17.60;99.90
59923;DHT22;45778;51.142;3.732;2022-09-09T17:26:08;17.70;99.90
59923;DHT22;45778;51.142;3.732;2022-09-09T17:28:36;18.40;99.90
59923;DHT22;45778;51.142;3.732;2022-09-09T17:31:02;19.30;99.90
59923;DHT22;45778;51.142;3.732;2022-09-09T17:33:30;19.90;99.90